sensor_id;sensor_type;location;lat;lon;timestamp;P1;durP1;ratioP1;P2;durP2;ratioP2
70247;SDS011;57641;51.416;5.506;2024-01-15T00:01:28;8.52;;;4.47;;
70247;SDS011;57641;51.416;5.506;2024-01-15T00:03:54;11.10;;;3.15;;
70247;SDS011;57641;51.416;5.506;2024-01-15T00:06:20;10.63;;;4.22;;
70247;SDS011;57641;51.416;5.506;2024-01-15T00:08:45;5.93;;;3.05;;
70247;SDS011;57641;51.416;5.506;2024-01-15T00:11:11;3.92;;;3.10;;
70247;SDS011;57641;51.416;5.506;2024-01-15T00:13:36;22.23;;;5.78;;
70247;SDS011;57641;51.416;5.506;2024-01-15T00:16:01;5.28;;;3.35;;
70247;SDS011;57641;51.416;5.506;2024-01-15T00:18:27;5.53;;;2.55;;
70247;SDS011;57641;51.416;5.506;2024-01-15T00:20:52;1.75;;;1.65;;
70247;SDS011;57641;51.416;5.506;2024-01-15T00:23:18;0.65;;;0.55;;
70247;SDS011;57641;51.416;5.506;2024-01-15T00:25:43;6.72;;;3.15;;
70247;SDS011;57641;51.416;5.506;2024-01-15T00:28:09;4.97;;;2.58;;
70247;SDS011;57641;51.416;5.506;2024-01-15T00:30:34;5.95;;;2.15;;
70247;SDS011;57641;51.416;5.506;2024-01-15T00:33:00;6.88;;;2.65;;
70247;SDS011;57641;51.416;5.506;2024-01-15T00:35:25;15.70;;;6.55;;
70247;SDS011;57641;51.416;5.506;2024-01-15T00:37:50;14.80;;;4.57;;
70247;SDS011;57641;51.416;5.506;2024-01-15T00:40:16;15.93;;;6.15;;
70247;SDS011;57641;51.416;5.506;2024-01-15T00:42:41;5.93;;;2.55;;
70247;SDS011;57641;51.416;5.506;2024-01-15T00:45:08;9.73;;;4.35;;
70247;SDS011;57641;51.416;5.506;2024-01-15T00:47:34;8.90;;;2.03;;
70247;SDS011;57641;51.416;5.506;2024-01-15T00:50:00;9.27;;;3.85;;
70247;SDS011;57641;51.416;5.506;2024-01-15T00:52:26;1.48;;;1.38;;
70247;SDS011;57641;51.416;5.506;2024-01-15T00:54:51;1.27;;;0.93;;
70247;SDS011;57641;51.416;5.506;2024-01-15T00:57:16;5.10;;;2.55;;
70247;SDS011;57641;51.416;5.506;2024-01-15T00:59:44;2.40;;;1.55;;
70247;SDS011;57641;51.416;5.506;2024-01-15T01:02:09;8.50;;;2.50;;
70247;SDS011;57641;51.416;5.506;2024-01-15T01:04:35;0.38;;;0.25;;
70247;SDS011;57641;51.416;5.506;2024-01-15T01:07:01;4.28;;;1.30;;
70247;SDS011;57641;51.416;5.506;2024-01-15T01:09:26;0.88;;;0.43;;
70247;SDS011;57641;51.416;5.506;2024-01-15T01:11:55;2.72;;;1.67;;
70247;SDS011;57641;51.416;5.506;2024-01-15T01:14:23;0.00;;;0.00;;
70247;SDS011;57641;51.416;5.506;2024-01-15T01:16:48;0.00;;;0.00;;
70247;SDS011;57641;51.416;5.506;2024-01-15T01:19:14;0.38;;;0.30;;
70247;SDS011;57641;51.416;5.506;2024-01-15T01:21:39;0.00;;;0.00;;
70247;SDS011;57641;51.416;5.506;2024-01-15T01:24:05;0.80;;;0.63;;
70247;SDS011;57641;51.416;5.506;2024-01-15T01:26:30;0.75;;;0.50;;
70247;SDS011;57641;51.416;5.506;2024-01-15T01:28:56;2.72;;;0.65;;
70247;SDS011;57641;51.416;5.506;2024-01-15T01:31:22;1.95;;;1.50;;
70247;SDS011;57641;51.416;5.506;2024-01-15T01:33:52;0.52;;;0.43;;
70247;SDS011;57641;51.416;5.506;2024-01-15T01:36:17;1.80;;;1.30;;
70247;SDS011;57641;51.416;5.506;2024-01-15T01:38:42;0.90;;;0.82;;
70247;SDS011;57641;51.416;5.506;2024-01-15T01:41:08;13.90;;;1.83;;
70247;SDS011;57641;51.416;5.506;2024-01-15T01:43:35;4.20;;;2.72;;
70247;SDS011;57641;51.416;5.506;2024-01-15T01:46:00;0.32;;;0.32;;
70247;SDS011;57641;51.416;5.506;2024-01-15T01:48:28;1.17;;;1.15;;
70247;SDS011;57641;51.416;5.506;2024-01-15T01:50:54;2.80;;;1.83;;
70247;SDS011;57641;51.416;5.506;2024-01-15T01:53:24;4.30;;;1.05;;
70247;SDS011;57641;51.416;5.506;2024-01-15T01:55:51;8.63;;;3.15;;
70247;SDS011;57641;51.416;5.506;2024-01-15T01:58:20;5.78;;;1.48;;
70247;SDS011;57641;51.416;5.506;2024-01-15T02:00:46;2.00;;;0.95;;
70247;SDS011;57641;51.416;5.506;2024-01-15T02:03:12;10.25;;;2.17;;
70247;SDS011;57641;51.416;5.506;2024-01-15T02:05:39;4.13;;;1.80;;
70247;SDS011;57641;51.416;5.506;2024-01-15T02:08:05;0.15;;;0.15;;
70247;SDS011;57641;51.416;5.506;2024-01-15T02:10:31;3.03;;;1.73;;
70247;SDS011;57641;51.416;5.506;2024-01-15T02:12:57;0.45;;;0.28;;
70247;SDS011;57641;51.416;5.506;2024-01-15T02:15:23;5.18;;;1.75;;
70247;SDS011;57641;51.416;5.506;2024-01-15T02:18:02;5.55;;;2.72;;
70247;SDS011;57641;51.416;5.506;2024-01-15T02:20:29;2.60;;;1.60;;
70247;SDS011;57641;51.416;5.506;2024-01-15T02:25:34;15.00;;;3.72;;
70247;SDS011;57641;51.416;5.506;2024-01-15T02:27:59;1.65;;;0.85;;
70247;SDS011;57641;51.416;5.506;2024-01-15T02:30:25;0.98;;;0.20;;
70247;SDS011;57641;51.416;5.506;2024-01-15T02:32:51;6.50;;;1.77;;
70247;SDS011;57641;51.416;5.506;2024-01-15T02:35:17;2.30;;;0.75;;
70247;SDS011;57641;51.416;5.506;2024-01-15T02:37:43;2.75;;;0.77;;
70247;SDS011;57641;51.416;5.506;2024-01-15T02:40:08;3.88;;;1.40;;
70247;SDS011;57641;51.416;5.506;2024-01-15T02:42:34;0.32;;;0.32;;
70247;SDS011;57641;51.416;5.506;2024-01-15T02:45:00;0.95;;;0.75;;
70247;SDS011;57641;51.416;5.506;2024-01-15T02:47:25;2.72;;;1.38;;
70247;SDS011;57641;51.416;5.506;2024-01-15T02:49:51;2.42;;;1.70;;
70247;SDS011;57641;51.416;5.506;2024-01-15T02:52:16;0.00;;;0.00;;
70247;SDS011;57641;51.416;5.506;2024-01-15T02:54:42;0.00;;;0.00;;
70247;SDS011;57641;51.416;5.506;2024-01-15T02:57:07;0.00;;;0.00;;
70247;SDS011;57641;51.416;5.506;2024-01-15T02:59:33;1.08;;;0.10;;
70247;SDS011;57641;51.416;5.506;2024-01-15T03:01:59;0.30;;;0.20;;
70247;SDS011;57641;51.416;5.506;2024-01-15T03:04:24;4.18;;;1.35;;
70247;SDS011;57641;51.416;5.506;2024-01-15T03:06:50;2.20;;;0.20;;
70247;SDS011;57641;51.416;5.506;2024-01-15T03:09:15;0.00;;;0.00;;
70247;SDS011;57641;51.416;5.506;2024-01-15T03:11:42;0.20;;;0.20;;
70247;SDS011;57641;51.416;5.506;2024-01-15T03:14:08;0.80;;;0.47;;
70247;SDS011;57641;51.416;5.506;2024-01-15T03:16:33;2.95;;;1.67;;
70247;SDS011;57641;51.416;5.506;2024-01-15T03:18:59;0.85;;;0.65;;
70247;SDS011;57641;51.416;5.506;2024-01-15T03:21:24;1.23;;;0.68;;
70247;SDS011;57641;51.416;5.506;2024-01-15T03:23:49;2.40;;;0.30;;
70247;SDS011;57641;51.416;5.506;2024-01-15T03:26:15;5.13;;;1.13;;
70247;SDS011;57641;51.416;5.506;2024-01-15T03:28:40;2.10;;;0.63;;
70247;SDS011;57641;51.416;5.506;2024-01-15T03:31:06;4.68;;;1.90;;
70247;SDS011;57641;51.416;5.506;2024-01-15T03:33:32;1.80;;;1.17;;
70247;SDS011;57641;51.416;5.506;2024-01-15T03:35:58;0.88;;;0.88;;
70247;SDS011;57641;51.416;5.506;2024-01-15T03:38:24;4.70;;;2.05;;
70247;SDS011;57641;51.416;5.506;2024-01-15T03:40:49;2.13;;;0.88;;
70247;SDS011;57641;51.416;5.506;2024-01-15T03:43:14;1.55;;;1.17;;
70247;SDS011;57641;51.416;5.506;2024-01-15T03:45:40;8.98;;;1.17;;
70247;SDS011;57641;51.416;5.506;2024-01-15T03:48:05;0.25;;;0.25;;
70247;SDS011;57641;51.416;5.506;2024-01-15T03:50:31;3.28;;;1.35;;
70247;SDS011;57641;51.416;5.506;2024-01-15T03:52:56;4.72;;;1.55;;
70247;SDS011;57641;51.416;5.506;2024-01-15T03:55:22;1.40;;;1.15;;
70247;SDS011;57641;51.416;5.506;2024-01-15T03:57:47;1.85;;;0.47;;
70247;SDS011;57641;51.416;5.506;2024-01-15T04:00:14;0.55;;;0.52;;
70247;SDS011;57641;51.416;5.506;2024-01-15T04:02:42;4.05;;;1.35;;
70247;SDS011;57641;51.416;5.506;2024-01-15T04:05:09;0.15;;;0.08;;
70247;SDS011;57641;51.416;5.506;2024-01-15T04:07:35;2.53;;;1.23;;
70247;SDS011;57641;51.416;5.506;2024-01-15T04:10:00;3.03;;;0.55;;
70247;SDS011;57641;51.416;5.506;2024-01-15T04:12:26;1.80;;;1.10;;
70247;SDS011;57641;51.416;5.506;2024-01-15T04:14:51;0.10;;;0.10;;
70247;SDS011;57641;51.416;5.506;2024-01-15T04:17:17;0.32;;;0.32;;
70247;SDS011;57641;51.416;5.506;2024-01-15T04:19:45;0.50;;;0.50;;
70247;SDS011;57641;51.416;5.506;2024-01-15T04:22:13;0.03;;;0.00;;
70247;SDS011;57641;51.416;5.506;2024-01-15T04:24:39;1.13;;;0.25;;
70247;SDS011;57641;51.416;5.506;2024-01-15T04:27:05;2.17;;;1.10;;
70247;SDS011;57641;51.416;5.506;2024-01-15T04:29:31;0.10;;;0.10;;
70247;SDS011;57641;51.416;5.506;2024-01-15T04:31:56;0.20;;;0.10;;
70247;SDS011;57641;51.416;5.506;2024-01-15T04:34:22;0.73;;;0.03;;
70247;SDS011;57641;51.416;5.506;2024-01-15T04:36:47;7.68;;;0.47;;
70247;SDS011;57641;51.416;5.506;2024-01-15T04:39:13;0.10;;;0.10;;
70247;SDS011;57641;51.416;5.506;2024-01-15T04:41:38;1.50;;;0.17;;
70247;SDS011;57641;51.416;5.506;2024-01-15T04:44:03;1.10;;;0.75;;
70247;SDS011;57641;51.416;5.506;2024-01-15T04:46:29;0.10;;;0.10;;
70247;SDS011;57641;51.416;5.506;2024-01-15T04:48:54;2.50;;;0.60;;
70247;SDS011;57641;51.416;5.506;2024-01-15T04:51:20;0.10;;;0.10;;
70247;SDS011;57641;51.416;5.506;2024-01-15T04:53:45;2.65;;;0.55;;
70247;SDS011;57641;51.416;5.506;2024-01-15T04:56:10;4.20;;;0.55;;
70247;SDS011;57641;51.416;5.506;2024-01-15T04:58:36;0.10;;;0.10;;
70247;SDS011;57641;51.416;5.506;2024-01-15T05:01:01;0.80;;;0.47;;
70247;SDS011;57641;51.416;5.506;2024-01-15T05:03:26;5.75;;;0.82;;
70247;SDS011;57641;51.416;5.506;2024-01-15T05:05:52;2.72;;;0.15;;
70247;SDS011;57641;51.416;5.506;2024-01-15T05:08:17;1.02;;;0.22;;
70247;SDS011;57641;51.416;5.506;2024-01-15T05:10:43;3.05;;;0.30;;
70247;SDS011;57641;51.416;5.506;2024-01-15T05:13:08;0.00;;;0.00;;
70247;SDS011;57641;51.416;5.506;2024-01-15T05:15:33;0.40;;;0.08;;
70247;SDS011;57641;51.416;5.506;2024-01-15T05:17:59;1.00;;;0.30;;
70247;SDS011;57641;51.416;5.506;2024-01-15T05:20:24;0.00;;;0.00;;
70247;SDS011;57641;51.416;5.506;2024-01-15T05:22:49;0.00;;;0.00;;
70247;SDS011;57641;51.416;5.506;2024-01-15T05:25:15;0.25;;;0.13;;
70247;SDS011;57641;51.416;5.506;2024-01-15T05:27:40;0.57;;;0.20;;
70247;SDS011;57641;51.416;5.506;2024-01-15T05:30:06;0.00;;;0.00;;
70247;SDS011;57641;51.416;5.506;2024-01-15T05:32:31;0.10;;;0.10;;
70247;SDS011;57641;51.416;5.506;2024-01-15T05:34:57;0.00;;;0.00;;
70247;SDS011;57641;51.416;5.506;2024-01-15T05:37:22;4.88;;;0.43;;
70247;SDS011;57641;51.416;5.506;2024-01-15T05:39:48;2.05;;;0.40;;
70247;SDS011;57641;51.416;5.506;2024-01-15T05:42:13;0.00;;;0.00;;
70247;SDS011;57641;51.416;5.506;2024-01-15T05:44:39;0.00;;;0.00;;
70247;SDS011;57641;51.416;5.506;2024-01-15T05:47:04;9.63;;;2.10;;
70247;SDS011;57641;51.416;5.506;2024-01-15T05:49:29;1.02;;;0.10;;
70247;SDS011;57641;51.416;5.506;2024-01-15T05:51:55;0.40;;;0.32;;
70247;SDS011;57641;51.416;5.506;2024-01-15T05:54:20;0.00;;;0.00;;
70247;SDS011;57641;51.416;5.506;2024-01-15T05:56:46;5.45;;;0.73;;
70247;SDS011;57641;51.416;5.506;2024-01-15T05:59:11;2.83;;;1.30;;
70247;SDS011;57641;51.416;5.506;2024-01-15T06:01:37;0.60;;;0.60;;
70247;SDS011;57641;51.416;5.506;2024-01-15T06:04:02;1.05;;;0.93;;
70247;SDS011;57641;51.416;5.506;2024-01-15T06:06:28;0.80;;;0.45;;
70247;SDS011;57641;51.416;5.506;2024-01-15T06:08:53;0.93;;;0.50;;
70247;SDS011;57641;51.416;5.506;2024-01-15T06:11:18;2.13;;;0.85;;
70247;SDS011;57641;51.416;5.506;2024-01-15T06:13:44;3.42;;;1.20;;
70247;SDS011;57641;51.416;5.506;2024-01-15T06:16:15;0.20;;;0.20;;
70247;SDS011;57641;51.416;5.506;2024-01-15T06:18:42;1.25;;;0.30;;
70247;SDS011;57641;51.416;5.506;2024-01-15T06:21:09;0.32;;;0.17;;
70247;SDS011;57641;51.416;5.506;2024-01-15T06:23:38;8.40;;;2.53;;
70247;SDS011;57641;51.416;5.506;2024-01-15T06:26:04;1.08;;;0.85;;
70247;SDS011;57641;51.416;5.506;2024-01-15T06:28:30;0.30;;;0.25;;
70247;SDS011;57641;51.416;5.506;2024-01-15T06:30:55;0.13;;;0.13;;
70247;SDS011;57641;51.416;5.506;2024-01-15T06:33:20;2.38;;;0.98;;
70247;SDS011;57641;51.416;5.506;2024-01-15T06:35:46;3.55;;;0.45;;
70247;SDS011;57641;51.416;5.506;2024-01-15T06:38:11;1.10;;;0.50;;
70247;SDS011;57641;51.416;5.506;2024-01-15T06:40:37;3.58;;;1.77;;
70247;SDS011;57641;51.416;5.506;2024-01-15T06:43:21;4.72;;;1.15;;
70247;SDS011;57641;51.416;5.506;2024-01-15T06:45:46;2.08;;;1.27;;
70247;SDS011;57641;51.416;5.506;2024-01-15T06:48:12;2.03;;;1.30;;
70247;SDS011;57641;51.416;5.506;2024-01-15T06:50:39;2.17;;;1.25;;
70247;SDS011;57641;51.416;5.506;2024-01-15T06:53:05;11.95;;;1.88;;
70247;SDS011;57641;51.416;5.506;2024-01-15T06:55:31;0.60;;;0.60;;
70247;SDS011;57641;51.416;5.506;2024-01-15T06:57:56;2.67;;;1.20;;
70247;SDS011;57641;51.416;5.506;2024-01-15T07:00:21;2.40;;;1.25;;
70247;SDS011;57641;51.416;5.506;2024-01-15T07:02:47;1.75;;;0.98;;
70247;SDS011;57641;51.416;5.506;2024-01-15T07:05:13;2.28;;;1.08;;
70247;SDS011;57641;51.416;5.506;2024-01-15T07:07:38;1.85;;;0.30;;
70247;SDS011;57641;51.416;5.506;2024-01-15T07:10:04;2.88;;;2.03;;
70247;SDS011;57641;51.416;5.506;2024-01-15T07:12:31;4.20;;;2.60;;
70247;SDS011;57641;51.416;5.506;2024-01-15T07:14:56;1.25;;;1.20;;
70247;SDS011;57641;51.416;5.506;2024-01-15T07:17:22;1.25;;;1.15;;
70247;SDS011;57641;51.416;5.506;2024-01-15T07:19:47;0.98;;;0.35;;
70247;SDS011;57641;51.416;5.506;2024-01-15T07:22:13;0.17;;;0.17;;
70247;SDS011;57641;51.416;5.506;2024-01-15T07:24:40;0.05;;;0.05;;
70247;SDS011;57641;51.416;5.506;2024-01-15T07:27:05;3.28;;;1.17;;
70247;SDS011;57641;51.416;5.506;2024-01-15T07:29:31;2.30;;;1.05;;
70247;SDS011;57641;51.416;5.506;2024-01-15T07:32:01;1.45;;;0.75;;
70247;SDS011;57641;51.416;5.506;2024-01-15T07:34:27;0.90;;;0.30;;
70247;SDS011;57641;51.416;5.506;2024-01-15T07:36:52;0.10;;;0.00;;
70247;SDS011;57641;51.416;5.506;2024-01-15T07:39:17;2.08;;;0.60;;
70247;SDS011;57641;51.416;5.506;2024-01-15T07:41:43;0.13;;;0.13;;
70247;SDS011;57641;51.416;5.506;2024-01-15T07:44:09;0.45;;;0.40;;
70247;SDS011;57641;51.416;5.506;2024-01-15T07:46:34;0.03;;;0.03;;
70247;SDS011;57641;51.416;5.506;2024-01-15T07:49:00;0.00;;;0.00;;
70247;SDS011;57641;51.416;5.506;2024-01-15T07:51:25;0.10;;;0.10;;
70247;SDS011;57641;51.416;5.506;2024-01-15T07:53:53;0.73;;;0.60;;
70247;SDS011;57641;51.416;5.506;2024-01-15T07:56:20;2.15;;;1.15;;
70247;SDS011;57641;51.416;5.506;2024-01-15T07:58:46;2.78;;;1.55;;
70247;SDS011;57641;51.416;5.506;2024-01-15T08:01:12;3.20;;;1.75;;
70247;SDS011;57641;51.416;5.506;2024-01-15T08:03:37;5.10;;;2.53;;
70247;SDS011;57641;51.416;5.506;2024-01-15T08:06:03;1.65;;;0.77;;
70247;SDS011;57641;51.416;5.506;2024-01-15T08:08:28;0.40;;;0.10;;
70247;SDS011;57641;51.416;5.506;2024-01-15T08:10:54;5.63;;;0.47;;
70247;SDS011;57641;51.416;5.506;2024-01-15T08:13:20;0.50;;;0.50;;
70247;SDS011;57641;51.416;5.506;2024-01-15T08:15:46;1.17;;;0.43;;
70247;SDS011;57641;51.416;5.506;2024-01-15T08:18:11;2.13;;;0.50;;
70247;SDS011;57641;51.416;5.506;2024-01-15T08:20:37;0.47;;;0.47;;
70247;SDS011;57641;51.416;5.506;2024-01-15T08:23:03;2.08;;;1.20;;
70247;SDS011;57641;51.416;5.506;2024-01-15T08:25:29;3.00;;;1.38;;
70247;SDS011;57641;51.416;5.506;2024-01-15T08:27:56;3.90;;;2.17;;
70247;SDS011;57641;51.416;5.506;2024-01-15T08:30:22;0.55;;;0.47;;
70247;SDS011;57641;51.416;5.506;2024-01-15T08:32:53;0.65;;;0.20;;
70247;SDS011;57641;51.416;5.506;2024-01-15T08:35:18;2.30;;;1.02;;
70247;SDS011;57641;51.416;5.506;2024-01-15T08:37:51;1.02;;;0.55;;
70247;SDS011;57641;51.416;5.506;2024-01-15T08:40:17;2.05;;;0.90;;
70247;SDS011;57641;51.416;5.506;2024-01-15T08:42:43;1.95;;;1.10;;
70247;SDS011;57641;51.416;5.506;2024-01-15T08:45:08;1.30;;;0.90;;
70247;SDS011;57641;51.416;5.506;2024-01-15T08:47:35;1.48;;;0.80;;
70247;SDS011;57641;51.416;5.506;2024-01-15T08:50:00;1.58;;;0.88;;
70247;SDS011;57641;51.416;5.506;2024-01-15T08:52:27;0.52;;;0.52;;
70247;SDS011;57641;51.416;5.506;2024-01-15T08:54:52;0.93;;;0.52;;
70247;SDS011;57641;51.416;5.506;2024-01-15T08:57:17;1.48;;;0.20;;
70247;SDS011;57641;51.416;5.506;2024-01-15T08:59:43;0.93;;;0.28;;
70247;SDS011;57641;51.416;5.506;2024-01-15T09:02:10;0.35;;;0.35;;
70247;SDS011;57641;51.416;5.506;2024-01-15T09:04:35;0.30;;;0.22;;
70247;SDS011;57641;51.416;5.506;2024-01-15T09:07:01;1.58;;;0.30;;
70247;SDS011;57641;51.416;5.506;2024-01-15T09:09:27;0.00;;;0.00;;
70247;SDS011;57641;51.416;5.506;2024-01-15T09:11:52;0.10;;;0.00;;
70247;SDS011;57641;51.416;5.506;2024-01-15T09:14:18;0.68;;;0.35;;
70247;SDS011;57641;51.416;5.506;2024-01-15T09:16:44;0.10;;;0.10;;
70247;SDS011;57641;51.416;5.506;2024-01-15T09:19:10;0.10;;;0.10;;
70247;SDS011;57641;51.416;5.506;2024-01-15T09:21:37;0.57;;;0.57;;
70247;SDS011;57641;51.416;5.506;2024-01-15T09:24:03;0.10;;;0.10;;
70247;SDS011;57641;51.416;5.506;2024-01-15T09:26:29;2.70;;;0.65;;
70247;SDS011;57641;51.416;5.506;2024-01-15T09:28:55;1.20;;;0.55;;
70247;SDS011;57641;51.416;5.506;2024-01-15T09:31:20;0.38;;;0.38;;
70247;SDS011;57641;51.416;5.506;2024-01-15T09:33:46;0.43;;;0.22;;
70247;SDS011;57641;51.416;5.506;2024-01-15T09:36:12;0.10;;;0.10;;
70247;SDS011;57641;51.416;5.506;2024-01-15T09:38:39;0.85;;;0.65;;
70247;SDS011;57641;51.416;5.506;2024-01-15T09:41:06;2.45;;;0.60;;
70247;SDS011;57641;51.416;5.506;2024-01-15T09:43:32;0.60;;;0.15;;
70247;SDS011;57641;51.416;5.506;2024-01-15T09:45:58;0.10;;;0.10;;
70247;SDS011;57641;51.416;5.506;2024-01-15T09:48:23;0.30;;;0.25;;
70247;SDS011;57641;51.416;5.506;2024-01-15T09:50:50;0.10;;;0.10;;
70247;SDS011;57641;51.416;5.506;2024-01-15T09:53:15;0.30;;;0.20;;
70247;SDS011;57641;51.416;5.506;2024-01-15T09:55:41;0.10;;;0.10;;
70247;SDS011;57641;51.416;5.506;2024-01-15T09:58:06;0.00;;;0.00;;
70247;SDS011;57641;51.416;5.506;2024-01-15T10:00:33;3.92;;;0.70;;
70247;SDS011;57641;51.416;5.506;2024-01-15T10:03:02;0.10;;;0.10;;
70247;SDS011;57641;51.416;5.506;2024-01-15T10:05:28;3.28;;;0.70;;
70247;SDS011;57641;51.416;5.506;2024-01-15T10:07:54;1.95;;;0.80;;
70247;SDS011;57641;51.416;5.506;2024-01-15T10:10:22;1.35;;;0.55;;
70247;SDS011;57641;51.416;5.506;2024-01-15T10:12:48;1.13;;;0.60;;
70247;SDS011;57641;51.416;5.506;2024-01-15T10:15:14;0.93;;;0.50;;
70247;SDS011;57641;51.416;5.506;2024-01-15T10:17:39;1.65;;;1.48;;
70247;SDS011;57641;51.416;5.506;2024-01-15T10:20:09;0.60;;;0.47;;
70247;SDS011;57641;51.416;5.506;2024-01-15T10:22:41;5.93;;;0.57;;
70247;SDS011;57641;51.416;5.506;2024-01-15T10:25:09;0.40;;;0.40;;
70247;SDS011;57641;51.416;5.506;2024-01-15T10:27:36;0.10;;;0.10;;
70247;SDS011;57641;51.416;5.506;2024-01-15T10:30:01;5.95;;;1.30;;
70247;SDS011;57641;51.416;5.506;2024-01-15T10:32:28;1.77;;;1.10;;
70247;SDS011;57641;51.416;5.506;2024-01-15T10:34:53;1.20;;;0.47;;
70247;SDS011;57641;51.416;5.506;2024-01-15T10:37:19;1.55;;;0.85;;
70247;SDS011;57641;51.416;5.506;2024-01-15T10:39:48;1.65;;;1.00;;
70247;SDS011;57641;51.416;5.506;2024-01-15T10:42:13;4.88;;;1.40;;
70247;SDS011;57641;51.416;5.506;2024-01-15T10:44:38;3.17;;;1.27;;
70247;SDS011;57641;51.416;5.506;2024-01-15T10:47:04;1.45;;;1.05;;
70247;SDS011;57641;51.416;5.506;2024-01-15T10:49:29;0.00;;;0.00;;
70247;SDS011;57641;51.416;5.506;2024-01-15T10:51:56;1.25;;;0.60;;
70247;SDS011;57641;51.416;5.506;2024-01-15T10:54:22;8.88;;;1.17;;
70247;SDS011;57641;51.416;5.506;2024-01-15T10:56:49;1.98;;;1.20;;
70247;SDS011;57641;51.416;5.506;2024-01-15T10:59:16;0.00;;;0.00;;
70247;SDS011;57641;51.416;5.506;2024-01-15T11:01:42;0.68;;;0.60;;
70247;SDS011;57641;51.416;5.506;2024-01-15T11:04:08;0.65;;;0.65;;
70247;SDS011;57641;51.416;5.506;2024-01-15T11:06:42;2.33;;;0.70;;
70247;SDS011;57641;51.416;5.506;2024-01-15T11:09:09;0.43;;;0.43;;
70247;SDS011;57641;51.416;5.506;2024-01-15T11:11:35;0.32;;;0.22;;
70247;SDS011;57641;51.416;5.506;2024-01-15T11:14:05;6.47;;;1.85;;
70247;SDS011;57641;51.416;5.506;2024-01-15T11:19:21;0.30;;;0.30;;
70247;SDS011;57641;51.416;5.506;2024-01-15T11:21:46;1.40;;;0.75;;
70247;SDS011;57641;51.416;5.506;2024-01-15T11:24:12;2.17;;;1.92;;
70247;SDS011;57641;51.416;5.506;2024-01-15T11:27:05;2.45;;;1.42;;
70247;SDS011;57641;51.416;5.506;2024-01-15T11:29:32;1.40;;;0.75;;
70247;SDS011;57641;51.416;5.506;2024-01-15T11:32:07;0.80;;;0.63;;
70247;SDS011;57641;51.416;5.506;2024-01-15T11:37:29;2.08;;;1.35;;
70247;SDS011;57641;51.416;5.506;2024-01-15T11:40:18;0.98;;;0.70;;
70247;SDS011;57641;51.416;5.506;2024-01-15T11:42:45;1.15;;;0.40;;
70247;SDS011;57641;51.416;5.506;2024-01-15T11:45:13;5.07;;;1.55;;
70247;SDS011;57641;51.416;5.506;2024-01-15T11:48:09;0.35;;;0.35;;
70247;SDS011;57641;51.416;5.506;2024-01-15T11:50:36;0.77;;;0.77;;
70247;SDS011;57641;51.416;5.506;2024-01-15T11:53:13;1.17;;;0.38;;
70247;SDS011;57641;51.416;5.506;2024-01-15T11:55:44;0.60;;;0.52;;
70247;SDS011;57641;51.416;5.506;2024-01-15T11:58:11;1.13;;;0.65;;
70247;SDS011;57641;51.416;5.506;2024-01-15T12:00:40;0.63;;;0.52;;
70247;SDS011;57641;51.416;5.506;2024-01-15T12:03:08;0.10;;;0.10;;
70247;SDS011;57641;51.416;5.506;2024-01-15T12:05:36;2.50;;;0.35;;
70247;SDS011;57641;51.416;5.506;2024-01-15T12:08:02;0.10;;;0.10;;
70247;SDS011;57641;51.416;5.506;2024-01-15T12:10:28;1.33;;;1.30;;
70247;SDS011;57641;51.416;5.506;2024-01-15T12:15:30;0.00;;;0.00;;
70247;SDS011;57641;51.416;5.506;2024-01-15T12:17:57;0.10;;;0.10;;
70247;SDS011;57641;51.416;5.506;2024-01-15T12:20:27;1.63;;;0.73;;
70247;SDS011;57641;51.416;5.506;2024-01-15T12:22:57;0.03;;;0.03;;
70247;SDS011;57641;51.416;5.506;2024-01-15T12:25:23;0.30;;;0.30;;
70247;SDS011;57641;51.416;5.506;2024-01-15T12:27:52;1.48;;;0.73;;
70247;SDS011;57641;51.416;5.506;2024-01-15T12:30:18;0.65;;;0.28;;
70247;SDS011;57641;51.416;5.506;2024-01-15T12:32:44;0.30;;;0.00;;
70247;SDS011;57641;51.416;5.506;2024-01-15T12:35:12;0.47;;;0.45;;
70247;SDS011;57641;51.416;5.506;2024-01-15T12:37:41;3.72;;;0.57;;
70247;SDS011;57641;51.416;5.506;2024-01-15T12:40:09;1.42;;;0.52;;
70247;SDS011;57641;51.416;5.506;2024-01-15T12:42:36;4.18;;;0.77;;
70247;SDS011;57641;51.416;5.506;2024-01-15T12:45:02;8.48;;;0.65;;
70247;SDS011;57641;51.416;5.506;2024-01-15T12:47:30;0.73;;;0.30;;
70247;SDS011;57641;51.416;5.506;2024-01-15T12:49:57;0.43;;;0.35;;
70247;SDS011;57641;51.416;5.506;2024-01-15T12:52:26;0.85;;;0.28;;
70247;SDS011;57641;51.416;5.506;2024-01-15T12:54:52;0.10;;;0.10;;
70247;SDS011;57641;51.416;5.506;2024-01-15T12:57:17;0.32;;;0.32;;
70247;SDS011;57641;51.416;5.506;2024-01-15T12:59:43;0.00;;;0.00;;
70247;SDS011;57641;51.416;5.506;2024-01-15T13:02:13;0.15;;;0.13;;
70247;SDS011;57641;51.416;5.506;2024-01-15T13:04:39;0.20;;;0.10;;
70247;SDS011;57641;51.416;5.506;2024-01-15T13:07:08;0.88;;;0.88;;
70247;SDS011;57641;51.416;5.506;2024-01-15T13:09:34;1.55;;;0.30;;
70247;SDS011;57641;51.416;5.506;2024-01-15T13:12:03;0.65;;;0.65;;
70247;SDS011;57641;51.416;5.506;2024-01-15T13:14:30;0.00;;;0.00;;
70247;SDS011;57641;51.416;5.506;2024-01-15T13:16:57;0.10;;;0.10;;
70247;SDS011;57641;51.416;5.506;2024-01-15T13:19:26;0.55;;;0.40;;
70247;SDS011;57641;51.416;5.506;2024-01-15T13:21:52;0.00;;;0.00;;
70247;SDS011;57641;51.416;5.506;2024-01-15T13:24:18;0.13;;;0.10;;
70247;SDS011;57641;51.416;5.506;2024-01-15T13:26:44;0.00;;;0.00;;
70247;SDS011;57641;51.416;5.506;2024-01-15T13:29:10;0.57;;;0.25;;
70247;SDS011;57641;51.416;5.506;2024-01-15T13:31:36;0.55;;;0.40;;
70247;SDS011;57641;51.416;5.506;2024-01-15T13:34:01;0.10;;;0.10;;
70247;SDS011;57641;51.416;5.506;2024-01-15T13:36:28;0.00;;;0.00;;
70247;SDS011;57641;51.416;5.506;2024-01-15T13:38:54;0.05;;;0.05;;
70247;SDS011;57641;51.416;5.506;2024-01-15T13:41:20;1.02;;;0.70;;
70247;SDS011;57641;51.416;5.506;2024-01-15T13:43:55;3.63;;;0.25;;
70247;SDS011;57641;51.416;5.506;2024-01-15T13:46:23;0.10;;;0.10;;
70247;SDS011;57641;51.416;5.506;2024-01-15T13:48:49;0.50;;;0.47;;
70247;SDS011;57641;51.416;5.506;2024-01-15T13:51:15;0.35;;;0.35;;
70247;SDS011;57641;51.416;5.506;2024-01-15T13:53:40;0.75;;;0.43;;
70247;SDS011;57641;51.416;5.506;2024-01-15T13:56:06;2.60;;;0.63;;
70247;SDS011;57641;51.416;5.506;2024-01-15T13:58:32;0.82;;;0.30;;
70247;SDS011;57641;51.416;5.506;2024-01-15T14:00:58;0.47;;;0.47;;
70247;SDS011;57641;51.416;5.506;2024-01-15T14:03:24;0.68;;;0.55;;
70247;SDS011;57641;51.416;5.506;2024-01-15T14:05:53;1.10;;;1.00;;
70247;SDS011;57641;51.416;5.506;2024-01-15T14:08:22;3.05;;;1.42;;
70247;SDS011;57641;51.416;5.506;2024-01-15T14:10:47;1.95;;;0.82;;
70247;SDS011;57641;51.416;5.506;2024-01-15T14:13:13;2.67;;;1.13;;
70247;SDS011;57641;51.416;5.506;2024-01-15T14:15:38;1.70;;;0.43;;
70247;SDS011;57641;51.416;5.506;2024-01-15T14:18:05;3.45;;;0.98;;
70247;SDS011;57641;51.416;5.506;2024-01-15T14:20:30;0.00;;;0.00;;
70247;SDS011;57641;51.416;5.506;2024-01-15T14:22:56;1.67;;;0.38;;
70247;SDS011;57641;51.416;5.506;2024-01-15T14:25:21;0.60;;;0.60;;
70247;SDS011;57641;51.416;5.506;2024-01-15T14:27:47;1.58;;;0.50;;
70247;SDS011;57641;51.416;5.506;2024-01-15T14:30:13;1.45;;;0.75;;
70247;SDS011;57641;51.416;5.506;2024-01-15T14:32:43;5.10;;;0.68;;
70247;SDS011;57641;51.416;5.506;2024-01-15T14:35:09;0.43;;;0.17;;
70247;SDS011;57641;51.416;5.506;2024-01-15T14:37:38;0.10;;;0.10;;
70247;SDS011;57641;51.416;5.506;2024-01-15T14:40:07;0.05;;;0.05;;
70247;SDS011;57641;51.416;5.506;2024-01-15T14:42:34;2.72;;;1.27;;
70247;SDS011;57641;51.416;5.506;2024-01-15T14:45:03;0.00;;;0.00;;
70247;SDS011;57641;51.416;5.506;2024-01-15T14:47:33;7.30;;;1.02;;
70247;SDS011;57641;51.416;5.506;2024-01-15T14:50:00;1.60;;;0.60;;
70247;SDS011;57641;51.416;5.506;2024-01-15T14:52:26;1.35;;;0.55;;
70247;SDS011;57641;51.416;5.506;2024-01-15T14:54:51;2.22;;;1.08;;